Time;durP1;ratioP1;P1;durP2;ratioP2;P2;SDS_P1;SDS_P2;PMS_P1;PMS_P2;Temp;Humidity;BMP_temperature;BMP_pressure;BME280_temperature;BME280_humidity;BME280_pressure;Samples;Min_cycle;Max_cycle;Signal;HPM_P1;HPM_P2
2023/05/21 00:01:29;;;;;;;4.20;3.80;;;;;;;12.87;100.00;97752.81;1709152;75;844906;-73
2023/05/21 00:03:59;;;;;;;5.60;3.70;;;;;;;12.73;100.00;97753.69;1702498;75;743904;-72
2023/05/21 00:06:34;;;;;;;4.05;3.60;;;;;;;12.79;100.00;97749.75;1710783;75;676822;-71
2023/05/21 00:09:05;;;;;;;5.05;3.60;;;;;;;12.81;100.00;97752.00;1701090;75;830099;-72
2023/05/21 00:11:36;;;;;;;4.80;3.90;;;;;;;12.67;100.00;97745.41;1710658;75;703227;-71
2023/05/21 00:14:06;;;;;;;4.90;4.40;;;;;;;12.67;100.00;97741.91;1702665;75;744533;-72
2023/05/21 00:16:36;;;;;;;4.50;4.10;;;;;;;12.75;100.00;97751.22;1711563;75;672908;-71
2023/05/21 00:19:06;;;;;;;4.20;3.75;;;;;;;12.79;100.00;97744.28;1702714;75;750506;-73
2023/05/21 00:21:39;;;;;;;4.30;3.90;;;;;;;12.74;100.00;97744.22;1712109;75;674357;-73
2023/05/21 00:24:10;;;;;;;4.80;4.30;;;;;;;12.59;100.00;97749.84;1702770;75;741292;-71
2023/05/21 00:26:40;;;;;;;4.60;4.10;;;;;;;12.67;100.00;97741.91;1708244;75;893549;-72
2023/05/21 00:29:11;;;;;;;5.15;4.65;;;;;;;12.47;100.00;97743.50;1701123;75;791421;-71
2023/05/21 00:31:41;;;;;;;6.90;5.15;;;;;;;12.51;100.00;97740.53;1711157;75;671038;-72
2023/05/21 00:34:11;;;;;;;5.30;4.80;;;;;;;12.52;100.00;97737.28;1702497;75;746402;-73
2023/05/21 00:36:44;;;;;;;6.60;6.00;;;;;;;12.48;100.00;97736.00;1711995;75;674854;-70
2023/05/21 00:39:14;;;;;;;6.10;5.50;;;;;;;12.44;100.00;97743.72;1703989;75;752623;-70
2023/05/21 00:41:45;;;;;;;5.10;4.60;;;;;;;12.56;100.00;97737.84;1712578;75;692651;-72
2023/05/21 00:44:17;;;;;;;5.05;4.55;;;;;;;12.54;100.00;97740.31;1703771;75;739108;-70
2023/05/21 00:46:52;;;;;;;4.00;3.70;;;;;;;12.60;100.00;97734.13;1626982;75;7801874;-72
2023/05/21 00:49:24;;;;;;;4.40;4.00;;;;;;;12.59;100.00;97733.38;1699649;75;918598;-71
2023/05/21 00:52:00;;;;;;;5.85;4.55;;;;;;;12.35;100.00;97723.44;1710510;75;705348;-71
2023/05/21 00:54:31;;;;;;;6.80;6.10;;;;;;;12.42;100.00;97725.00;1702019;75;742292;-72
2023/05/21 00:57:02;;;;;;;5.70;5.20;;;;;;;12.39;100.00;97733.44;1695975;75;1938117;-73
2023/05/21 00:59:33;;;;;;;7.30;6.60;;;;;;;12.31;100.00;97731.16;1701303;75;741666;-72
2023/05/21 01:02:05;;;;;;;6.30;5.70;;;;;;;12.42;100.00;97729.72;1710881;75;675866;-74
2023/05/21 01:04:35;;;;;;;5.00;4.50;;;;;;;12.50;100.00;97731.53;1700196;75;851806;-70
2023/05/21 01:07:08;;;;;;;5.20;4.70;;;;;;;12.46;100.00;97725.53;1710475;75;676543;-71
2023/05/21 01:09:38;;;;;;;5.65;4.50;;;;;;;12.51;100.00;97729.56;1701388;75;759323;-71
2023/05/21 01:12:11;;;;;;;4.40;4.00;;;;;;;12.52;100.00;97714.59;1709161;75;850323;-71
2023/05/21 01:14:42;;;;;;;3.70;3.35;;;;;;;12.55;100.00;97711.63;1702146;75;735169;-72
2023/05/21 01:17:14;;;;;;;4.70;4.30;;;;;;;12.46;100.00;97719.25;1709385;75;752400;-70
2023/05/21 01:19:46;;;;;;;4.90;4.40;;;;;;;12.43;100.00;97712.75;1697611;75;999118;-71
2023/05/21 01:22:23;;;;;;;5.30;4.80;;;;;;;12.42;100.00;97716.00;1711044;75;678280;-71
2023/05/21 01:24:57;;;;;;;5.80;4.80;;;;;;;12.47;100.00;97716.03;1702182;75;754453;-71
2023/05/21 01:27:27;;;;;;;4.10;3.70;;;;;;;12.47;100.00;97713.28;1710555;75;671351;-71
2023/05/21 01:29:58;;;;;;;4.00;3.60;;;;;;;12.39;100.00;97708.72;1701524;75;747876;-72
2023/05/21 01:32:35;;;;;;;5.85;5.35;;;;;;;12.29;100.00;97714.41;1710800;75;678932;-71
2023/05/21 01:35:13;;;;;;;5.55;5.05;;;;;;;12.19;100.00;97704.81;1701964;75;743877;-73
2023/05/21 01:37:51;;;;;;;6.60;6.00;;;;;;;12.20;100.00;97709.09;1702214;75;673031;-70
2023/05/21 01:40:31;;;;;;;;;;;;;;;12.25;100.00;97702.13;1710776;75;674240;-70
2023/05/21 01:43:02;;;;;;;5.60;5.10;;;;;;;12.33;100.00;97709.44;1703001;75;672182;-72
2023/05/21 01:45:35;;;;;;;4.90;4.30;;;;;;;12.42;100.00;97702.28;1711123;75;675188;-73
2023/05/21 01:48:06;;;;;;;4.90;4.40;;;;;;;12.40;100.00;97705.50;1700432;75;816596;-73
2023/05/21 01:50:38;;;;;;;4.00;3.60;;;;;;;12.45;100.00;97698.56;1708911;75;848918;-70
2023/05/21 01:53:08;;;;;;;4.50;4.10;;;;;;;12.37;100.00;97701.00;1701533;75;741965;-74
2023/05/21 01:55:41;;;;;;;4.65;4.25;;;;;;;12.30;100.00;97696.69;1696031;75;1889318;-72
2023/05/21 01:58:11;;;;;;;6.35;5.75;;;;;;;12.25;100.00;97694.66;1701430;75;743801;-75
2023/05/21 02:00:41;;;;;;;8.10;7.30;;;;;;;12.11;100.00;97692.78;1710803;75;697306;-71
2023/05/21 02:03:12;;;;;;;8.50;7.60;;;;;;;12.11;100.00;97696.28;1702118;75;740009;-72
2023/05/21 02:05:42;;;;;;;7.60;6.90;;;;;;;12.07;100.00;97689.50;1710632;75;671119;-72
2023/05/21 02:08:14;;;;;;;9.20;8.30;;;;;;;12.00;100.00;97681.69;1702003;75;757909;-74
2023/05/21 02:10:46;;;;;;;7.10;6.40;;;;;;;12.09;100.00;97687.00;1710778;75;675692;-74
2023/05/21 02:13:19;;;;;;;8.05;7.25;;;;;;;11.93;100.00;97686.38;1701005;75;760204;-74
2023/05/21 02:15:50;;;;;;;7.80;7.00;;;;;;;11.92;100.00;97695.09;1711146;75;667865;-74
2023/05/21 02:18:20;;;;;;;7.60;6.30;;;;;;;11.92;100.00;97687.59;1687342;75;1639388;-71
2023/05/21 02:20:51;;;;;;;5.15;4.65;;;;;;;12.03;100.00;97683.47;1710693;75;689974;-71
2023/05/21 02:23:21;;;;;;;4.80;4.40;;;;;;;12.06;100.00;97699.72;1701674;75;742340;-73
2023/05/21 02:25:54;;;;;;;4.80;4.30;;;;;;;12.03;100.00;97697.19;1710519;75;676942;-72
2023/05/21 02:28:24;;;;;;;5.35;4.85;;;;;;;11.92;100.00;97693.09;1700824;75;759283;-71
2023/05/21 02:30:54;;;;;;;5.35;4.85;;;;;;;11.79;100.00;97689.94;1698811;75;1710890;-73
2023/05/21 02:33:25;;;;;;;5.80;5.30;;;;;;;11.68;100.00;97698.78;1699133;75;950729;-72
2023/05/21 02:35:55;;;;;;;5.50;5.00;;;;;;;11.77;100.00;97700.66;1711156;75;679337;-71
2023/05/21 02:38:25;;;;;;;5.75;5.15;;;;;;;11.62;100.00;97697.25;1701809;75;750826;-70
2023/05/21 02:40:58;;;;;;;5.45;4.95;;;;;;;11.71;100.00;97699.81;1710785;75;680019;-72
2023/05/21 02:43:28;;;;;;;4.90;4.35;;;;;;;11.75;100.00;97691.41;1702396;75;755245;-73
2023/05/21 02:45:58;;;;;;;4.30;3.90;;;;;;;11.73;100.00;97687.13;1707951;75;971392;-70
2023/05/21 02:48:28;;;;;;;6.05;5.30;;;;;;;11.66;100.00;97681.31;1702124;75;757548;-72
2023/05/21 02:50:58;;;;;;;4.90;4.40;;;;;;;11.66;100.00;97673.84;1710574;75;674941;-71
2023/05/21 02:53:29;;;;;;;4.20;3.70;;;;;;;11.56;100.00;97683.47;1702254;75;747839;-71
2023/05/21 02:56:02;;;;;;;8.50;7.60;;;;;;;11.11;100.00;97673.94;1710892;75;671316;-72
2023/05/21 02:58:33;;;;;;;8.30;7.20;;;;;;;11.33;100.00;97678.94;1699433;75;896286;-70
2023/05/21 03:01:03;;;;;;;8.20;6.00;;;;;;;11.44;100.00;97673.59;1710561;75;678919;-72
2023/05/21 03:03:34;;;;;;;6.85;5.45;;;;;;;11.40;100.00;97673.06;1702082;75;762505;-71
2023/05/21 03:06:04;;;;;;;6.55;5.85;;;;;;;11.39;100.00;97679.78;1711363;75;670791;-72
2023/05/21 03:08:34;;;;;;;6.75;6.15;;;;;;;11.44;100.00;97677.09;1701784;75;758696;-73
2023/05/21 03:11:07;;;;;;;5.55;5.05;;;;;;;11.51;100.00;97673.94;1710354;75;693621;-72
2023/05/21 03:13:37;;;;;;;9.25;6.60;;;;;;;11.41;100.00;97671.84;1702375;75;749706;-73
2023/05/21 03:16:08;;;;;;;6.70;6.00;;;;;;;11.37;100.00;97658.31;1711319;75;676339;-74
2023/05/21 03:18:38;;;;;;;8.05;7.25;;;;;;;11.37;100.00;97665.78;1702621;75;758728;-72
2023/05/21 03:21:12;;;;;;;7.25;6.55;;;;;;;11.28;100.00;97666.69;1711606;75;671838;-71
2023/05/21 03:23:42;;;;;;;7.35;6.55;;;;;;;11.24;100.00;97675.13;1702147;75;743805;-74
2023/05/21 03:26:14;;;;;;;7.20;6.50;;;;;;;11.38;100.00;97668.06;1698690;75;1734369;-72
2023/05/21 03:28:45;;;;;;;5.55;5.05;;;;;;;11.40;100.00;97675.78;1702449;75;753591;-73
2023/05/21 03:31:15;;;;;;;4.85;4.35;;;;;;;11.42;100.00;97665.84;1711571;75;678653;-74
2023/05/21 03:33:45;;;;;;;6.30;5.70;;;;;;;11.15;100.00;97674.50;1702117;75;740430;-76
2023/05/21 03:36:15;;;;;;;6.05;5.45;;;;;;;11.35;100.00;97671.75;1710959;75;675147;-73
2023/05/21 03:38:46;;;;;;;6.25;5.65;;;;;;;11.43;100.00;97667.38;1701752;75;740553;-75
2023/05/21 03:41:19;;;;;;;6.40;5.70;;;;;;;11.30;100.00;97672.44;1710491;75;679732;-72
2023/05/21 03:43:49;;;;;;;6.10;5.50;;;;;;;11.27;100.00;97676.88;1702184;75;759833;-71
2023/05/21 03:46:19;;;;;;;9.20;8.15;;;;;;;11.26;100.00;97680.13;1711098;75;672774;-72
2023/05/21 03:48:49;;;;;;;8.10;7.40;;;;;;;11.27;100.00;97682.38;1702219;75;738546;-73
2023/05/21 03:51:19;;;;;;;6.65;6.05;;;;;;;11.26;100.00;97680.13;1711306;75;679358;-73
2023/05/21 03:53:49;;;;;;;6.70;6.00;;;;;;;11.29;100.00;97687.38;1663352;75;3982449;-73
2023/05/21 03:56:23;;;;;;;7.00;6.40;;;;;;;11.32;100.00;97691.91;1684554;75;2920932;-72
2023/05/21 03:58:53;;;;;;;8.55;7.75;;;;;;;11.32;100.00;97700.13;1702278;75;748569;-73
2023/05/21 04:01:23;;;;;;;7.85;7.15;;;;;;;11.33;100.00;97696.16;1711594;75;677646;-74
2023/05/21 04:03:53;;;;;;;6.60;6.00;;;;;;;11.54;100.00;97696.16;1699833;75;738349;-74
2023/05/21 04:06:23;;;;;;;5.90;5.30;;;;;;;11.57;100.00;97697.91;1711034;75;680205;-73
2023/05/21 04:08:54;;;;;;;5.40;4.90;;;;;;;11.68;100.00;97695.31;1702428;75;713842;-73
2023/05/21 04:11:26;;;;;;;5.45;4.35;;;;;;;11.75;100.00;97694.88;1710157;75;673070;-72
2023/05/21 04:13:57;;;;;;;5.85;5.30;;;;;;;11.75;100.00;97703.13;1701267;75;744555;-72
2023/05/21 04:16:27;;;;;;;4.90;4.40;;;;;;;11.74;100.00;97707.09;1709656;75;678775;-73
2023/05/21 04:18:57;;;;;;;6.60;6.00;;;;;;;11.60;100.00;97716.91;1701713;75;747207;-73
2023/05/21 04:21:27;;;;;;;9.90;8.90;;;;;;;11.61;100.00;97725.88;1710601;75;672030;-71
2023/05/21 04:23:59;;;;;;;10.00;9.00;;;;;;;11.72;100.00;97732.25;1701577;75;749688;-73
2023/05/21 04:26:34;;;;;;;9.60;8.70;;;;;;;11.83;100.00;97726.13;1695317;75;1982041;-72
2023/05/21 04:29:04;;;;;;;7.90;7.20;;;;;;;12.04;100.00;97721.41;1699659;75;915242;-72
2023/05/21 04:31:34;;;;;;;6.20;5.60;;;;;;;12.12;100.00;97727.19;1710421;75;677590;-74
2023/05/21 04:34:05;;;;;;;6.60;6.00;;;;;;;12.27;100.00;97730.59;1700897;75;745606;-71
2023/05/21 04:36:35;;;;;;;16.00;13.00;;;;;;;12.30;100.00;97735.13;1711013;75;678357;-72
2023/05/21 04:39:06;;;;;;;12.65;11.35;;;;;;;12.45;100.00;97726.75;1701959;75;740077;-73
2023/05/21 04:41:38;;;;;;;13.90;12.50;;;;;;;12.54;100.00;97731.34;1710652;75;686372;-71
2023/05/21 04:44:13;;;;;;;16.30;14.60;;;;;;;12.68;100.00;97726.94;1701005;75;762915;-73
2023/05/21 04:46:44;;;;;;;12.30;11.00;;;;;;;12.67;100.00;97736.41;1711466;75;672095;-73
2023/05/21 04:49:15;;;;;;;11.00;9.90;;;;;;;12.78;100.00;97731.00;1701356;75;767448;-73
2023/05/21 04:51:45;;;;;;;8.00;7.20;;;;;;;12.97;100.00;97740.38;1710362;75;740870;-72
2023/05/21 04:54:15;;;;;;;9.25;8.35;;;;;;;12.92;100.00;97737.59;1690214;75;1688224;-72
2023/05/21 04:56:48;;;;;;;8.80;7.80;;;;;;;12.99;100.00;97737.91;1712127;75;683239;-72
2023/05/21 04:59:19;;;;;;;11.80;10.70;;;;;;;13.06;100.00;97739.44;1641280;75;5976425;-71
2023/05/21 05:01:50;;;;;;;11.45;10.35;;;;;;;13.20;100.00;97743.25;1700401;75;1712114;-71
2023/05/21 05:04:20;;;;;;;11.35;10.25;;;;;;;13.15;100.00;97741.22;1703812;75;747451;-70
2023/05/21 05:06:50;;;;;;;10.90;9.65;;;;;;;13.43;100.00;97741.41;1711654;75;677573;-71
2023/05/21 05:09:23;;;;;;;10.20;9.20;;;;;;;13.59;100.00;97740.75;1698694;75;976282;-70
2023/05/21 05:11:56;;;;;;;10.25;8.90;;;;;;;13.69;100.00;97746.78;1711014;75;672557;-75
2023/05/21 05:14:26;;;;;;;9.85;8.95;;;;;;;13.86;100.00;97741.34;1701881;75;736297;-73
2023/05/21 05:16:58;;;;;;;11.30;9.55;;;;;;;14.00;100.00;97748.63;1710415;75;669927;-71
2023/05/21 05:19:28;;;;;;;11.00;9.85;;;;;;;14.17;100.00;97751.44;1702093;75;749312;-71
2023/05/21 05:21:59;;;;;;;10.90;9.80;;;;;;;14.22;100.00;97741.66;1699125;75;1692434;-72
2023/05/21 05:24:29;;;;;;;11.25;10.15;;;;;;;14.27;100.00;97746.44;1702240;75;745428;-71
2023/05/21 05:27:02;;;;;;;13.20;11.85;;;;;;;14.31;100.00;97755.22;1711278;75;675631;-73
2023/05/21 05:29:32;;;;;;;12.60;11.30;;;;;;;14.36;100.00;97754.47;1702095;75;751578;-71
2023/05/21 05:32:02;;;;;;;13.15;11.00;;;;;;;14.53;100.00;97753.69;1709255;75;850749;-72
2023/05/21 05:34:32;;;;;;;11.90;10.80;;;;;;;14.61;100.00;97761.00;1699283;75;919079;-72
2023/05/21 05:37:03;;;;;;;10.50;9.50;;;;;;;14.74;100.00;97760.50;1710944;75;677096;-71
2023/05/21 05:39:33;;;;;;;11.50;9.85;;;;;;;14.82;100.00;97756.00;1702024;75;770528;-72
2023/05/21 05:42:06;;;;;;;11.60;10.40;;;;;;;15.00;100.00;97756.72;1711679;75;672473;-71
2023/05/21 05:44:37;;;;;;;11.25;10.05;;;;;;;15.09;100.00;97762.72;1701164;75;763853;-71
2023/05/21 05:47:09;;;;;;;11.45;10.25;;;;;;;15.17;100.00;97754.69;1710131;75;675367;-69
2023/05/21 05:49:39;;;;;;;12.90;11.60;;;;;;;15.03;100.00;97756.50;1701818;75;746738;-74
2023/05/21 05:52:10;;;;;;;11.40;10.20;;;;;;;15.09;100.00;97759.22;1712198;75;670638;-74
2023/05/21 05:54:40;;;;;;;31.20;28.30;;;;;;;15.57;100.00;97760.13;1699982;75;932392;-75
2023/05/21 05:57:13;;;;;;;81.10;68.10;;;;;;;15.66;100.00;97766.09;1712095;75;670806;-74
2023/05/21 05:59:43;;;;;;;143.15;123.25;;;;;;;15.83;100.00;97768.06;1702791;75;747813;-73
2023/05/21 06:02:13;;;;;;;88.20;74.40;;;;;;;15.76;100.00;97766.59;1710650;75;672633;-72
2023/05/21 06:04:43;;;;;;;250.40;213.40;;;;;;;15.43;100.00;97757.13;1701916;75;745043;-74
2023/05/21 06:07:14;;;;;;;170.40;143.50;;;;;;;15.80;100.00;97752.50;1710628;75;678891;-73
2023/05/21 06:09:44;;;;;;;73.00;63.70;;;;;;;16.10;100.00;97758.88;1699602;75;906547;-72
2023/05/21 06:12:17;;;;;;;89.85;80.65;;;;;;;16.25;100.00;97757.81;1708209;75;945626;-72
2023/05/21 06:14:47;;;;;;;35.30;31.60;;;;;;;16.33;100.00;97762.28;1702032;75;749660;-72
2023/05/21 06:17:18;;;;;;;20.10;18.20;;;;;;;16.59;100.00;97759.06;1709332;75;901344;-76
2023/05/21 06:19:48;;;;;;;13.70;12.30;;;;;;;16.39;100.00;97760.22;1687146;75;1997448;-73
2023/05/21 06:22:18;;;;;;;12.50;11.10;;;;;;;16.68;100.00;97760.00;1709774;75;788998;-71
2023/05/21 06:24:48;;;;;;;35.70;27.95;;;;;;;17.18;100.00;97756.81;1702518;75;749479;-73
2023/05/21 06:27:21;;;;;;;20.40;18.30;;;;;;;16.99;100.00;97758.78;1710937;75;706688;-76
2023/05/21 06:29:51;;;;;;;16.80;15.00;;;;;;;17.07;100.00;97747.88;1702041;75;749390;-74
2023/05/21 06:32:22;;;;;;;14.50;12.90;;;;;;;17.57;100.00;97758.41;1710708;75;667127;-77
2023/05/21 06:34:52;;;;;;;10.35;9.35;;;;;;;17.88;100.00;97751.53;1702272;75;747201;-73
2023/05/21 06:37:23;;;;;;;10.85;9.70;;;;;;;17.73;100.00;97759.50;1710618;75;727281;-73
2023/05/21 06:39:53;;;;;;;9.40;8.50;;;;;;;17.84;100.00;97747.56;1702671;75;743415;-73
2023/05/21 06:42:26;;;;;;;8.80;7.90;;;;;;;17.76;100.00;97758.44;1709233;75;843978;-73
2023/05/21 06:44:56;;;;;;;10.00;8.90;;;;;;;18.15;100.00;97745.38;1699243;75;932712;-71
2023/05/21 06:47:27;;;;;;;9.60;8.10;;;;;;;18.40;100.00;97757.09;1708016;75;970692;-75
2023/05/21 06:49:57;;;;;;;11.55;9.30;;;;;;;18.52;100.00;97739.03;1702162;75;744589;-72
2023/05/21 06:52:28;;;;;;;20.30;16.55;;;;;;;18.63;100.00;97752.72;1710832;75;675221;-73
2023/05/21 06:54:58;;;;;;;14.35;12.05;;;;;;;18.56;100.00;97752.59;1702026;75;744583;-74
2023/05/21 06:57:30;;;;;;;14.65;11.80;;;;;;;18.77;100.00;97756.31;1710643;75;677838;-74
2023/05/21 07:00:01;;;;;;;16.15;13.85;;;;;;;18.98;100.00;97761.25;1702388;75;749267;-72
2023/05/21 07:02:31;;;;;;;12.70;11.10;;;;;;;19.09;100.00;97761.06;1708171;75;910374;-74
2023/05/21 07:05:01;;;;;;;11.55;10.35;;;;;;;19.33;100.00;97760.88;1700795;75;791292;-73
2023/05/21 07:07:33;;;;;;;15.85;12.85;;;;;;;19.63;100.00;97751.47;1711119;75;672555;-73
2023/05/21 07:10:03;;;;;;;12.10;9.00;;;;;;;19.89;92.48;97747.19;1699588;75;896086;-73
2023/05/21 07:12:36;;;;;;;9.30;8.40;;;;;;;20.05;91.73;97750.91;1710988;75;679088;-73
2023/05/21 07:15:07;;;;;;;10.40;8.40;;;;;;;20.18;91.09;97754.38;1702102;75;738432;-74
2023/05/21 07:17:38;;;;;;;7.30;6.20;;;;;;;20.62;88.93;97748.38;1710926;75;679374;-73
2023/05/21 07:20:10;;;;;;;8.20;7.05;;;;;;;20.36;86.47;97749.94;1702286;75;741385;-71
2023/05/21 07:22:41;;;;;;;12.00;9.90;;;;;;;19.98;91.29;97750.25;1710123;75;682646;-72
2023/05/21 07:25:12;;;;;;;16.85;13.15;;;;;;;20.07;85.73;97737.97;1701237;75;753669;-74
2023/05/21 07:27:45;;;;;;;16.00;12.50;;;;;;;21.19;80.96;97745.66;1708270;75;862356;-73
2023/05/21 07:30:16;;;;;;;10.90;9.70;;;;;;;21.80;76.27;97739.72;1701431;75;723723;-72
2023/05/21 07:32:46;;;;;;;13.10;9.60;;;;;;;21.88;75.43;97746.03;1707442;75;985455;-73
2023/05/21 07:35:17;;;;;;;10.70;8.70;;;;;;;22.06;74.79;97744.25;1702241;75;762180;-73
2023/05/21 07:37:48;;;;;;;8.80;7.70;;;;;;;22.10;72.13;97746.69;1709972;75;731213;-74
2023/05/21 07:40:18;;;;;;;9.90;8.20;;;;;;;22.19;71.23;97753.78;1674841;75;2962063;-73
2023/05/21 07:42:51;;;;;;;8.40;7.50;;;;;;;21.27;74.61;97746.44;1710840;75;681387;-73
2023/05/21 07:45:21;;;;;;;9.95;8.55;;;;;;;21.68;69.47;97742.06;1701855;75;755131;-71
2023/05/21 07:47:51;;;;;;;9.45;6.85;;;;;;;21.57;71.80;97738.84;1711406;75;675628;-73
2023/05/21 07:50:22;;;;;;;7.55;6.85;;;;;;;22.05;70.37;97745.53;1701455;75;758952;-72
2023/05/21 07:52:52;;;;;;;7.10;6.00;;;;;;;22.30;70.88;97743.06;1709131;75;863456;-73
2023/05/21 07:55:22;;;;;;;7.40;6.20;;;;;;;22.26;70.17;97750.28;1702204;75;756119;-72
2023/05/21 07:57:55;;;;;;;8.70;7.35;;;;;;;21.44;72.26;97746.03;1710820;75;675665;-72
2023/05/21 08:00:26;;;;;;;8.75;7.85;;;;;;;20.08;77.98;97738.69;1702045;75;748025;-71
2023/05/21 08:02:57;;;;;;;8.10;7.10;;;;;;;20.89;76.77;97739.88;1711452;75;673185;-77
2023/05/21 08:05:27;;;;;;;6.50;5.80;;;;;;;21.84;71.08;97744.91;1699002;75;952362;-72
2023/05/21 08:07:57;;;;;;;12.00;10.55;;;;;;;21.90;73.03;97735.09;1711480;75;674898;-72
2023/05/21 08:10:27;;;;;;;6.90;6.20;;;;;;;22.38;71.34;97750.69;1697832;75;926720;-75
2023/05/21 08:13:00;;;;;;;6.20;5.60;;;;;;;22.46;68.48;97741.03;1711690;75;672038;-74
2023/05/21 08:15:31;;;;;;;6.70;5.75;;;;;;;22.21;70.04;97751.22;1629584;75;6837513;-70
2023/05/21 08:18:01;;;;;;;5.80;5.20;;;;;;;22.68;63.57;97745.16;1711568;75;673700;-73
2023/05/21 08:20:32;;;;;;;7.00;6.00;;;;;;;21.94;62.27;97745.91;1701410;75;789814;-74
2023/05/21 08:23:02;;;;;;;7.60;5.80;;;;;;;21.83;62.95;97743.44;1711354;75;673977;-75
2023/05/21 08:25:32;;;;;;;5.70;5.10;;;;;;;22.31;60.95;97738.97;1701849;75;738320;-75
2023/05/21 08:28:05;;;;;;;5.65;5.05;;;;;;;22.69;59.14;97746.66;1709923;75;722259;-72
2023/05/21 08:30:36;;;;;;;8.50;7.35;;;;;;;23.12;58.37;97741.47;1700897;75;755830;-70
2023/05/21 08:33:06;;;;;;;8.20;6.60;;;;;;;23.28;57.64;97740.13;1710073;75;683827;-74
2023/05/21 08:35:36;;;;;;;6.65;6.00;;;;;;;22.50;55.98;97751.84;1701247;75;764607;-74
2023/05/21 08:38:07;;;;;;;9.10;6.45;;;;;;;22.47;56.54;97741.78;1710038;75;687494;-73
2023/05/21 08:40:37;;;;;;;7.65;6.40;;;;;;;22.03;57.47;97745.38;1701404;75;746415;-71
2023/05/21 08:43:13;;;;;;;6.60;5.90;;;;;;;22.35;60.03;97746.97;1710656;75;704797;-74
2023/05/21 08:45:48;;;;;;;8.20;5.70;;;;;;;22.22;58.05;97747.84;1699991;75;822710;-72
2023/05/21 08:48:20;;;;;;;8.60;6.40;;;;;;;22.48;57.67;97746.78;1708723;75;858393;-72
2023/05/21 08:50:50;;;;;;;6.10;5.50;;;;;;;22.66;57.75;97739.41;1699023;75;944156;-69
2023/05/21 08:53:20;;;;;;;5.50;4.90;;;;;;;22.57;58.05;97744.78;1706875;75;974203;-70
2023/05/21 08:55:51;;;;;;;6.55;5.25;;;;;;;22.86;57.44;97737.72;1701643;75;746859;-73
2023/05/21 08:58:24;;;;;;;7.50;6.55;;;;;;;22.91;56.34;97739.56;1709206;75;764735;-74
2023/05/21 09:00:56;;;;;;;6.70;6.00;;;;;;;23.06;56.71;97743.69;1701737;75;756748;-73
2023/05/21 09:03:28;;;;;;;6.00;5.30;;;;;;;23.54;56.62;97738.94;1710909;75;685153;-70
2023/05/21 09:05:58;;;;;;;5.95;5.35;;;;;;;23.84;54.53;97733.88;1701500;75;768886;-71
2023/05/21 09:08:37;;;;;;;6.40;5.00;;;;;;;24.00;54.06;97735.25;1710157;75;676791;-72
2023/05/21 09:11:07;;;;;;;6.55;5.15;;;;;;;23.92;55.87;97742.94;1701545;75;756081;-73
2023/05/21 09:13:42;;;;;;;5.90;5.15;;;;;;;23.32;55.12;97734.91;1709854;75;725128;-73
2023/05/21 09:16:13;;;;;;;6.55;5.90;;;;;;;24.22;53.81;97734.41;1702048;75;749722;-74
2023/05/21 09:18:43;;;;;;;4.75;4.05;;;;;;;24.50;51.61;97738.19;1711232;75;671352;-71
2023/05/21 09:21:30;;;;;;;4.90;4.30;;;;;;;24.59;52.22;97737.56;1702074;75;749854;-71
2023/05/21 09:24:02;;;;;;;5.90;5.10;;;;;;;24.60;51.01;97735.50;1703157;75;680727;-68
2023/05/21 09:26:32;;;;;;;5.30;4.80;;;;;;;24.27;50.40;97735.50;1712091;75;672949;-71
2023/05/21 09:29:05;;;;;;;10.70;7.70;;;;;;;23.94;51.29;97738.28;1703726;75;674236;-69
2023/05/21 09:31:36;;;;;;;5.75;5.15;;;;;;;24.50;50.39;97740.97;1711033;75;679606;-71
2023/05/21 09:34:06;;;;;;;4.70;3.80;;;;;;;24.72;49.95;97736.53;1702959;75;686158;-68
2023/05/21 09:36:39;;;;;;;6.10;5.50;;;;;;;24.54;50.42;97738.53;1710186;75;673536;-68
2023/05/21 10:26:32;;;;;;;7.80;5.80;;;;;;;24.19;51.87;97729.19;1712263;75;676919;-72
2023/05/21 10:29:04;;;;;;;8.00;5.50;;;;;;;23.92;50.85;97731.75;1703314;75;782657;-68
2023/05/21 10:31:35;;;;;;;8.20;6.00;;;;;;;24.02;50.28;97727.06;1710605;75;812458;-70
2023/05/21 10:34:07;;;;;;;5.70;5.10;;;;;;;24.62;49.54;97719.63;1703522;75;678470;-71
2023/05/21 10:36:40;;;;;;;6.50;4.90;;;;;;;24.34;49.40;97720.72;1711504;75;677077;-70
2023/05/21 10:39:11;;;;;;;7.70;5.70;;;;;;;24.59;48.82;97722.81;1703953;75;685967;-69
2023/05/21 10:42:05;;;;;;;7.70;5.20;;;;;;;24.41;50.18;97716.38;1713291;75;676625;-71
2023/05/21 10:44:50;;;;;;;5.75;4.90;;;;;;;24.55;51.99;97720.41;1704336;75;741934;-70
2023/05/21 10:47:50;;;;;;;6.85;5.55;;;;;;;25.60;50.51;97717.81;1704254;75;687020;-69
2023/05/21 10:50:48;;;;;;;6.95;5.20;;;;;;;25.25;48.05;97717.78;1705338;75;681808;-70
2023/05/21 10:53:35;;;;;;;5.95;4.95;;;;;;;25.26;46.26;97710.88;1704861;75;674159;-69
2023/05/21 10:56:20;;;;;;;5.85;4.80;;;;;;;25.78;47.81;97718.50;1712362;75;676738;-72
2023/05/21 10:59:20;;;;;;;5.30;4.80;;;;;;;25.43;46.78;97716.47;1704420;75;739416;-72
2023/05/21 11:01:53;;;;;;;6.10;4.80;;;;;;;25.09;46.69;97708.78;1703766;75;804231;-72
2023/05/21 11:04:28;;;;;;;5.40;4.60;;;;;;;25.53;46.19;97705.34;1713096;75;674825;-73
2023/05/21 11:07:00;;;;;;;6.85;5.20;;;;;;;24.18;47.95;97705.34;1703715;75;753767;-73
2023/05/21 11:09:30;;;;;;;7.40;5.70;;;;;;;23.90;50.18;97695.97;1713252;75;697504;-73
2023/05/21 11:12:03;;;;;;;5.75;4.65;;;;;;;24.94;47.64;97694.91;1704064;75;733638;-71
2023/05/21 11:14:42;;;;;;;6.20;5.10;;;;;;;25.98;45.08;97699.78;1713347;75;673350;-71
2023/05/21 11:17:18;;;;;;;6.30;4.40;;;;;;;26.67;46.69;97698.78;1700512;75;926163;-73
2023/05/21 11:19:50;;;;;;;6.00;5.35;;;;;;;25.83;45.37;97692.28;1693085;75;1718314;-70
2023/05/21 11:22:28;;;;;;;7.80;5.40;;;;;;;26.21;45.91;97703.00;1713551;75;685074;-71
2023/05/21 11:25:03;;;;;;;5.50;4.90;;;;;;;25.41;47.78;97688.28;1705034;75;688246;-73
2023/05/21 11:27:38;;;;;;;8.90;4.90;;;;;;;26.11;45.47;97691.00;1710969;75;808230;-72
2023/05/21 11:30:17;;;;;;;9.90;7.30;;;;;;;26.38;45.88;97690.97;1705039;75;691501;-72
2023/05/21 11:33:20;;;;;;;6.40;5.80;;;;;;;26.00;45.29;97688.72;1706072;75;681135;-71
2023/05/21 11:36:02;;;;;;;8.70;5.80;;;;;;;25.58;47.18;97695.22;1703989;75;684263;-71
2023/05/21 11:38:33;;;;;;;7.20;4.90;;;;;;;25.50;47.17;97684.09;1709265;75;850365;-72
2023/05/21 11:41:06;;;;;;;5.80;4.80;;;;;;;25.28;46.77;97685.84;1702973;75;752003;-71
2023/05/21 11:43:36;;;;;;;8.20;5.30;;;;;;;25.66;46.01;97676.22;1710950;75;696561;-71
2023/05/21 11:46:09;;;;;;;8.60;5.65;;;;;;;25.54;46.19;97680.84;1703078;75;691011;-75
2023/05/21 11:48:41;;;;;;;6.10;5.20;;;;;;;25.83;45.16;97681.06;1711105;75;683551;-71
2023/05/21 11:51:11;;;;;;;7.60;4.80;;;;;;;26.20;45.73;97683.97;1700752;75;937499;-69
2023/05/21 11:53:43;;;;;;;6.20;4.75;;;;;;;26.54;44.09;97683.09;1711434;75;679160;-73
2023/05/21 11:56:15;;;;;;;7.15;4.80;;;;;;;26.56;43.08;97666.41;1701879;75;749903;-70
2023/05/21 11:58:46;;;;;;;6.20;4.50;;;;;;;26.71;42.79;97674.56;1709137;75;870342;-70
2023/05/21 12:01:29;;;;;;;6.90;5.90;;;;;;;26.85;42.67;97672.09;1702334;75;747730;-71
2023/05/21 12:04:00;;;;;;;5.10;4.50;;;;;;;27.12;42.13;97663.53;1703769;75;679946;-74
2023/05/21 12:06:30;;;;;;;7.80;5.00;;;;;;;25.84;44.46;97666.47;1711025;75;676179;-72
2023/05/21 12:09:00;;;;;;;4.90;4.10;;;;;;;25.84;44.52;97668.53;1703627;75;685593;-74
2023/05/21 12:11:30;;;;;;;6.00;3.85;;;;;;;25.93;45.09;97667.88;1711256;75;677991;-74
2023/05/21 12:14:00;;;;;;;5.40;4.90;;;;;;;26.21;44.64;97660.91;1703975;75;680354;-76
2023/05/21 12:16:34;;;;;;;5.90;4.90;;;;;;;26.64;45.15;97674.69;1712138;75;675681;-74
2023/05/21 12:19:05;;;;;;;4.50;3.50;;;;;;;26.90;44.62;97673.88;1703209;75;682850;-71
2023/05/21 12:21:36;;;;;;;4.05;3.45;;;;;;;26.82;44.75;97664.84;1696871;75;1907444;-75
2023/05/21 12:24:06;;;;;;;4.25;3.70;;;;;;;26.67;44.63;97660.22;1700555;75;892732;-73
2023/05/21 12:26:37;;;;;;;8.60;7.30;;;;;;;27.12;43.49;97666.34;1710976;75;674049;-74